createdAt,value
2023-05-07T00:03:59.139Z,16.39
2023-05-07T00:08:11.881Z,16.33
2023-05-07T00:12:24.460Z,16.47
2023-05-07T00:16:36.984Z,16.47
2023-05-07T00:20:49.558Z,16.40
2023-05-07T00:25:02.138Z,16.33
2023-05-07T00:29:14.488Z,16.31
2023-05-07T00:33:28.131Z,16.30
2023-05-07T00:37:40.682Z,16.37
2023-05-07T00:41:53.761Z,16.43
2023-05-07T00:46:06.588Z,16.47
2023-05-07T00:50:20.435Z,16.45
2023-05-07T00:54:33.609Z,16.38
2023-05-07T00:58:46.124Z,16.33
2023-05-07T01:02:59.289Z,16.27
2023-05-07T01:07:12.368Z,16.26
2023-05-07T01:11:25.283Z,16.23
2023-05-07T01:15:39.107Z,16.19
2023-05-07T01:19:52.145Z,16.14
2023-05-07T01:24:05.984Z,16.04
2023-05-07T01:28:19.008Z,15.87
2023-05-07T01:32:45.053Z,16.06
2023-05-07T01:36:59.292Z,16.00
2023-05-07T01:41:13.022Z,15.95
2023-05-07T01:45:26.944Z,15.78
2023-05-07T01:49:39.776Z,15.58
2023-05-07T01:53:54.711Z,15.59
2023-05-07T01:58:07.073Z,15.46
2023-05-07T02:02:19.494Z,15.62
2023-05-07T02:06:32.385Z,15.68
2023-05-07T02:10:51.211Z,15.62
2023-05-07T02:15:03.984Z,15.62
2023-05-07T02:19:16.527Z,15.42
2023-05-07T02:23:29.003Z,15.29
2023-05-07T02:27:41.566Z,15.20
2023-05-07T02:31:55.356Z,15.18
2023-05-07T02:36:11.678Z,15.22
2023-05-07T02:40:50.186Z,15.20
2023-05-07T02:45:02.906Z,15.11
2023-05-07T02:49:17.120Z,15.02
2023-05-07T02:53:30.758Z,15.03
2023-05-07T02:57:43.258Z,15.03
2023-05-07T03:01:55.661Z,14.84
2023-05-07T03:06:08.365Z,14.86
2023-05-07T03:10:23.109Z,14.86
2023-05-07T03:14:35.529Z,14.98
2023-05-07T03:18:48.066Z,15.35
2023-05-07T03:23:00.612Z,15.15
2023-05-07T03:27:13.022Z,15.06
2023-05-07T03:31:26.223Z,15.00
2023-05-07T03:35:39.019Z,15.10
2023-05-07T03:39:51.453Z,15.07
2023-05-07T03:44:04.842Z,14.91
2023-05-07T03:48:17.234Z,14.84
2023-05-07T03:52:29.840Z,14.90
2023-05-07T03:56:45.978Z,14.90
2023-05-07T04:00:58.574Z,14.93
2023-05-07T04:05:15.981Z,15.02
2023-05-07T04:09:30.027Z,15.11
2023-05-07T04:13:43.490Z,15.40
2023-05-07T04:17:56.178Z,15.48
2023-05-07T04:22:11.634Z,15.60
2023-05-07T04:26:24.569Z,15.63
2023-05-07T04:30:37.181Z,15.75
2023-05-07T04:34:52.339Z,15.92
2023-05-07T04:39:05.722Z,16.14
2023-05-07T04:43:18.159Z,16.54
2023-05-07T04:47:35.204Z,17.53
2023-05-07T04:51:48.606Z,17.58
2023-05-07T04:56:05.402Z,17.48
2023-05-07T05:00:24.643Z,18.75
2023-05-07T05:04:38.672Z,19.27
2023-05-07T05:08:52.277Z,18.69
2023-05-07T05:13:05.000Z,17.78
2023-05-07T05:17:17.882Z,17.86
2023-05-07T05:21:30.288Z,18.37
2023-05-07T05:25:48.484Z,19.27
2023-05-07T05:30:01.781Z,20.14
2023-05-07T05:34:16.361Z,19.99
2023-05-07T05:38:28.923Z,20.11
2023-05-07T05:42:41.795Z,19.60
2023-05-07T05:46:56.832Z,19.55
2023-05-07T05:51:09.513Z,20.28
2023-05-07T05:55:23.127Z,20.44
2023-05-07T05:59:35.693Z,20.11
2023-05-07T06:03:48.258Z,19.64
2023-05-07T06:08:01.573Z,20.61
2023-05-07T06:12:18.089Z,21.22
2023-05-07T06:16:33.610Z,21.32
2023-05-07T06:20:47.435Z,21.49
2023-05-07T06:25:09.468Z,20.74
2023-05-07T06:29:23.047Z,21.09
2023-05-07T06:33:36.300Z,20.76
2023-05-07T06:37:49.073Z,20.68
2023-05-07T06:42:07.162Z,20.99
2023-05-07T06:46:20.818Z,21.05
2023-05-07T06:50:33.375Z,21.24
2023-05-07T06:54:46.751Z,21.29
2023-05-07T06:59:04.052Z,21.49
2023-05-07T07:03:21.499Z,21.52
2023-05-07T07:07:34.628Z,22.40
2023-05-07T07:11:47.078Z,22.54
2023-05-07T07:16:01.846Z,22.97
2023-05-07T07:20:14.987Z,22.89
2023-05-07T07:24:30.576Z,22.49
2023-05-07T07:28:47.324Z,23.13
2023-05-07T07:33:04.660Z,23.05
2023-05-07T07:37:20.707Z,23.00
2023-05-07T07:41:33.488Z,23.76
2023-05-07T07:45:47.329Z,24.15
2023-05-07T07:50:00.151Z,24.15
2023-05-07T07:54:16.814Z,24.38
2023-05-07T07:58:29.916Z,24.12
2023-05-07T08:02:42.661Z,24.45
2023-05-07T08:06:57.307Z,24.79
2023-05-07T08:11:11.012Z,24.41
2023-05-07T08:15:23.732Z,24.12
2023-05-07T08:19:37.071Z,24.57
2023-05-07T08:23:53.549Z,24.88
2023-05-07T08:28:07.194Z,25.42
2023-05-07T08:32:23.023Z,25.00
2023-05-07T08:36:35.716Z,25.47
2023-05-07T08:40:48.803Z,25.58
2023-05-07T08:45:09.702Z,25.87
2023-05-07T08:49:23.347Z,25.98
2023-05-07T08:53:37.516Z,26.37
2023-05-07T08:57:51.302Z,25.70
2023-05-07T09:02:04.136Z,25.05
2023-05-07T09:06:18.097Z,25.93
2023-05-07T09:10:31.497Z,26.41
2023-05-07T09:14:44.161Z,26.25
2023-05-07T09:18:56.874Z,26.03
2023-05-07T09:23:09.831Z,25.66
2023-05-07T09:27:22.829Z,25.49
2023-05-07T09:31:39.406Z,25.94
2023-05-07T09:35:54.219Z,25.73
2023-05-07T09:40:09.800Z,26.23
2023-05-07T09:44:23.310Z,26.31
2023-05-07T09:48:40.982Z,26.33
2023-05-07T09:52:55.292Z,27.62
2023-05-07T09:57:10.848Z,26.37
2023-05-07T10:01:26.827Z,27.37
2023-05-07T10:05:40.663Z,26.95
2023-05-07T10:09:54.012Z,27.58
2023-05-07T10:14:19.350Z,26.68
2023-05-07T10:18:35.402Z,27.43
2023-05-07T10:22:58.544Z,27.80
2023-05-07T10:27:20.322Z,27.26
2023-05-07T10:31:40.798Z,27.18
2023-05-07T10:36:02.132Z,27.82
2023-05-07T10:40:16.458Z,27.92
2023-05-07T10:44:30.685Z,27.41
2023-05-07T10:49:05.655Z,27.89
2023-05-07T10:53:28.717Z,27.65
2023-05-07T10:58:33.003Z,27.77
2023-05-07T11:03:20.847Z,27.62
2023-05-07T11:07:58.768Z,26.89
2023-05-07T11:12:17.401Z,26.75
2023-05-07T11:16:38.244Z,26.34
2023-05-07T11:21:11.438Z,26.23
2023-05-07T11:25:34.257Z,26.25
2023-05-07T11:29:59.780Z,27.01
2023-05-07T11:34:13.760Z,26.36
2023-05-07T11:38:26.909Z,26.73
2023-05-07T11:42:41.458Z,26.55
2023-05-07T11:46:53.819Z,27.13
2023-05-07T11:51:10.264Z,26.51
2023-05-07T11:55:23.954Z,26.69
2023-05-07T11:59:51.068Z,26.51
2023-05-07T12:04:05.713Z,27.19
2023-05-07T12:08:19.248Z,27.65
2023-05-07T12:12:31.657Z,27.65
2023-05-07T12:16:44.963Z,27.06
2023-05-07T12:20:57.765Z,26.78
2023-05-07T12:25:10.973Z,26.68
2023-05-07T12:29:26.703Z,26.75
2023-05-07T12:33:39.772Z,27.04
2023-05-07T12:37:57.277Z,27.82
2023-05-07T12:42:09.713Z,26.99
2023-05-07T12:46:22.418Z,27.23
2023-05-07T12:50:35.280Z,27.16
2023-05-07T12:54:49.315Z,27.48
2023-05-07T12:59:01.749Z,27.23
2023-05-07T13:03:22.955Z,26.63
2023-05-07T13:07:35.987Z,26.82
2023-05-07T13:11:48.365Z,26.37
2023-05-07T13:16:01.747Z,27.38
2023-05-07T13:20:14.282Z,26.77
2023-05-07T13:24:26.696Z,26.73
2023-05-07T13:28:39.146Z,26.87
2023-05-07T13:32:53.464Z,26.35
2023-05-07T13:37:06.192Z,26.19
2023-05-07T13:41:18.627Z,26.26
2023-05-07T13:45:31.485Z,26.08
2023-05-07T13:49:43.961Z,26.48
2023-05-07T13:53:56.486Z,26.10
2023-05-07T13:58:09.035Z,26.44
2023-05-07T14:02:21.517Z,26.41
2023-05-07T14:06:34.029Z,26.64
2023-05-07T14:10:47.291Z,26.47
2023-05-07T14:15:00.052Z,26.28
2023-05-07T14:19:13.504Z,26.17
2023-05-07T14:23:28.822Z,26.34
2023-05-07T14:27:41.218Z,26.47
2023-05-07T14:31:53.651Z,26.13
2023-05-07T14:36:06.213Z,26.15
2023-05-07T14:40:18.689Z,25.59
2023-05-07T14:44:31.685Z,25.89
2023-05-07T14:48:46.307Z,25.65
2023-05-07T14:52:58.682Z,26.05
2023-05-07T14:57:14.524Z,25.02
2023-05-07T15:01:27.250Z,25.49
2023-05-07T15:05:39.876Z,25.56
2023-05-07T15:09:52.580Z,25.64
2023-05-07T15:14:05.068Z,25.52
2023-05-07T15:18:17.584Z,25.81
2023-05-07T15:22:30.062Z,25.39
2023-05-07T15:26:42.537Z,25.25
2023-05-07T15:30:56.467Z,25.50
2023-05-07T15:35:09.578Z,25.06
2023-05-07T15:39:24.277Z,24.84
2023-05-07T15:43:49.639Z,24.89
2023-05-07T15:48:02.321Z,24.84
2023-05-07T15:52:16.007Z,24.54
2023-05-07T15:56:28.452Z,24.47
2023-05-07T16:00:41.776Z,24.28
2023-05-07T16:04:54.540Z,24.02
2023-05-07T16:09:06.993Z,24.03
2023-05-07T16:13:20.535Z,23.98
2023-05-07T16:17:33.146Z,23.85
2023-05-07T16:21:45.603Z,23.75
2023-05-07T16:25:58.054Z,23.77
2023-05-07T16:30:11.043Z,23.75
2023-05-07T16:34:23.573Z,23.57
2023-05-07T16:38:36.024Z,23.37
2023-05-07T16:42:48.423Z,23.24
2023-05-07T16:47:00.680Z,22.68
2023-05-07T16:51:13.063Z,22.39
2023-05-07T16:55:25.438Z,22.19
2023-05-07T16:59:38.014Z,21.90
2023-05-07T17:03:51.055Z,21.75
2023-05-07T17:08:03.674Z,21.42
2023-05-07T17:12:16.648Z,21.27
2023-05-07T17:16:28.979Z,20.94
2023-05-07T17:20:43.350Z,20.80
2023-05-07T17:24:57.103Z,20.69
2023-05-07T17:29:10.440Z,20.52
2023-05-07T17:33:22.797Z,20.37
2023-05-07T17:37:35.461Z,20.25
2023-05-07T17:41:47.922Z,20.07
2023-05-07T17:46:00.546Z,19.98
2023-05-07T17:50:14.274Z,19.84
2023-05-07T17:54:27.137Z,19.71
2023-05-07T17:58:57.384Z,19.61
2023-05-07T18:03:11.570Z,19.39
2023-05-07T18:07:24.142Z,19.29
2023-05-07T18:11:37.549Z,19.18
2023-05-07T18:15:50.035Z,19.09
2023-05-07T18:20:11.757Z,18.98
2023-05-07T18:24:24.300Z,18.89
2023-05-07T18:28:36.668Z,18.83
2023-05-07T18:32:50.339Z,18.70
2023-05-07T18:37:02.816Z,18.70
2023-05-07T18:41:16.985Z,18.59
2023-05-07T18:45:29.301Z,18.48
2023-05-07T18:49:41.817Z,18.37
2023-05-07T18:53:54.421Z,18.29
2023-05-07T18:58:06.919Z,18.33
2023-05-07T19:02:19.613Z,18.51
2023-05-07T19:06:33.678Z,18.44
2023-05-07T19:10:46.245Z,18.26
2023-05-07T19:14:59.194Z,18.22
2023-05-07T19:19:11.743Z,18.22
2023-05-07T19:23:24.228Z,18.15
2023-05-07T19:27:40.939Z,18.20
2023-05-07T19:31:53.405Z,18.23
2023-05-07T19:36:05.857Z,17.98
2023-05-07T19:40:18.398Z,17.86
2023-05-07T19:44:30.827Z,17.89
2023-05-07T19:48:44.143Z,17.85
2023-05-07T19:52:56.580Z,17.89
2023-05-07T19:57:09.348Z,17.73
2023-05-07T20:01:22.214Z,17.67
2023-05-07T20:05:34.759Z,17.81
2023-05-07T20:09:47.088Z,18.54
2023-05-07T20:13:59.476Z,18.50
2023-05-07T20:18:11.899Z,18.36
2023-05-07T20:22:24.371Z,18.16
2023-05-07T20:26:37.094Z,17.89
2023-05-07T20:30:49.790Z,17.66
2023-05-07T20:35:05.350Z,17.75
2023-05-07T20:39:17.929Z,17.56
2023-05-07T20:43:30.341Z,17.63
2023-05-07T20:47:42.873Z,17.49
2023-05-07T20:51:55.363Z,17.33
2023-05-07T20:56:08.832Z,17.24
2023-05-07T21:00:21.268Z,17.43
2023-05-07T21:04:33.724Z,17.35
2023-05-07T21:08:46.108Z,17.46
2023-05-07T21:12:59.346Z,17.50
2023-05-07T21:17:11.830Z,17.41
2023-05-07T21:21:24.072Z,17.21
2023-05-07T21:25:39.505Z,17.39
2023-05-07T21:29:51.874Z,17.12
2023-05-07T21:34:04.336Z,17.05
2023-05-07T21:38:18.978Z,17.01
2023-05-07T21:42:31.364Z,16.82
2023-05-07T21:46:43.874Z,16.67
2023-05-07T21:51:07.319Z,16.63
2023-05-07T21:55:20.184Z,16.70
2023-05-07T21:59:34.323Z,16.82
2023-05-07T22:03:47.005Z,16.72
2023-05-07T22:08:02.411Z,16.57
2023-05-07T22:12:14.799Z,16.61
2023-05-07T22:16:30.462Z,16.39
2023-05-07T22:20:42.870Z,16.52
2023-05-07T22:24:55.756Z,16.67
2023-05-07T22:29:08.201Z,16.78
2023-05-07T22:33:20.673Z,16.55
2023-05-07T22:37:34.218Z,16.22
2023-05-07T22:41:46.955Z,16.13
2023-05-07T22:46:02.632Z,16.16
2023-05-07T22:50:15.362Z,16.19
2023-05-07T22:54:28.213Z,15.97
2023-05-07T22:58:40.742Z,15.74
2023-05-07T23:02:54.499Z,15.77
2023-05-07T23:07:07.198Z,15.74
2023-05-07T23:11:19.687Z,16.14
2023-05-07T23:15:34.013Z,16.38
2023-05-07T23:19:46.653Z,16.12
2023-05-07T23:23:59.429Z,15.97
2023-05-07T23:28:11.975Z,16.03
2023-05-07T23:32:24.566Z,16.00
2023-05-07T23:36:37.049Z,15.96
2023-05-07T23:40:49.401Z,15.91
2023-05-07T23:45:02.210Z,15.72
2023-05-07T23:49:14.621Z,15.66
2023-05-07T23:53:27.172Z,15.60
2023-05-07T23:57:39.967Z,15.64
